Hlavní strana
METAR-TAF:

METAR-TAF

Letiště :

Los Angeles, Kalifornie, Spojené státy americké

Los Angeles International Airport

zeměpisná šířka: 33-56-17N, zeměpisná délka: 118-23-20W, výška: 38 m

Aktuální stav počasí

Zpráva byla vytvořena před 1 hodinou a 11 minutami, v 04:53 UTC
Bezvětří
Teplota 14°C
Vlhkost vzduchu 58%
Tlak 1022 hPa
Viditelnost: 16.1 km
Jasno

METAR: KLAX 230453Z 00000KT 10SM CLR 14/06 A3017 RMK AO2 SLP215 T01440056

Čas: 22:04 (06:04 UTC)

Předpověď počasí

Zpráva byla vytvořena před 33 minutami, v 05:31 UTC
Předpověď platná od 23 v 06 UTC do 24 v 12 UTC
vítr z různých směrů 4 kt
Viditelnost: 10 km
Jasno
Od 23 v 2000 UTC
Západní vítr 10 kt
Viditelnost: 10 km
Jasno
Od 24 v 0500 UTC
vítr z různých směrů 3 kt
Viditelnost: 10 km
Jasno

TAF: KLAX 230531Z 2306/2412 VRB04KT P6SM SKC FM232000 27010KT P6SM SKC FM240500 VRB03KT P6SM SKC

Stav a předpovědi počasí z více než 4 000 letišť (zprávy METAR a TAF).

Červené a žluté tečky na mapě představují dostupné meteorologické stanice.

Když kurzor umístíte na tečku, zobrazí se název stanice.

Pak kliknutím zobrazíte stav a předpověď počasí.

Chcete-li změnit mapu, kliknutím na zelené tlačítko se znaménkem +mapu přiblížíte, kliknutím na zelené tlačítko se znaménkem – mapu oddálíte a kliknutím na zelené šipky přejdete na sousední mapy.


METAR-TAF: